sensor_id;sensor_type;location;lat;lon;timestamp;P1;durP1;ratioP1;P2;durP2;ratioP2
44446;SDS011;30152;52.066;5.358;2023-07-13T06:53:04;31.02;;;11.30;;
44446;SDS011;30152;52.066;5.358;2023-07-13T06:55:30;25.00;;;11.75;;
44446;SDS011;30152;52.066;5.358;2023-07-13T06:57:55;24.60;;;11.90;;
44446;SDS011;30152;52.066;5.358;2023-07-13T07:00:21;23.08;;;11.82;;
44446;SDS011;30152;52.066;5.358;2023-07-13T07:02:47;26.10;;;11.52;;
44446;SDS011;30152;52.066;5.358;2023-07-13T07:05:13;31.50;;;12.70;;
44446;SDS011;30152;52.066;5.358;2023-07-13T07:07:39;31.45;;;11.43;;
44446;SDS011;30152;52.066;5.358;2023-07-13T07:10:04;25.63;;;11.52;;
44446;SDS011;30152;52.066;5.358;2023-07-13T07:12:30;20.95;;;11.88;;
44446;SDS011;30152;52.066;5.358;2023-07-13T07:14:57;27.20;;;10.85;;
44446;SDS011;30152;52.066;5.358;2023-07-13T07:17:23;28.15;;;11.05;;
44446;SDS011;30152;52.066;5.358;2023-07-13T07:19:50;25.23;;;10.45;;
44446;SDS011;30152;52.066;5.358;2023-07-13T07:22:15;25.25;;;10.35;;
44446;SDS011;30152;52.066;5.358;2023-07-13T07:24:41;28.48;;;12.60;;
44446;SDS011;30152;52.066;5.358;2023-07-13T07:27:06;23.80;;;10.93;;
44446;SDS011;30152;52.066;5.358;2023-07-13T07:29:32;21.38;;;10.35;;
44446;SDS011;30152;52.066;5.358;2023-07-13T07:31:59;26.38;;;11.82;;
44446;SDS011;30152;52.066;5.358;2023-07-13T07:34:25;26.50;;;10.07;;
44446;SDS011;30152;52.066;5.358;2023-07-13T07:36:51;22.10;;;10.15;;
44446;SDS011;30152;52.066;5.358;2023-07-13T07:39:18;22.60;;;10.00;;
44446;SDS011;30152;52.066;5.358;2023-07-13T07:41:44;18.80;;;9.98;;
44446;SDS011;30152;52.066;5.358;2023-07-13T07:44:09;19.05;;;10.10;;
44446;SDS011;30152;52.066;5.358;2023-07-13T07:46:36;26.10;;;11.05;;
44446;SDS011;30152;52.066;5.358;2023-07-13T07:49:02;26.08;;;11.35;;
44446;SDS011;30152;52.066;5.358;2023-07-13T07:51:27;24.92;;;10.50;;
44446;SDS011;30152;52.066;5.358;2023-07-13T07:53:53;24.00;;;10.68;;
44446;SDS011;30152;52.066;5.358;2023-07-13T07:56:19;26.45;;;11.65;;
44446;SDS011;30152;52.066;5.358;2023-07-13T07:58:45;24.17;;;10.93;;
44446;SDS011;30152;52.066;5.358;2023-07-13T08:01:10;29.70;;;10.88;;
44446;SDS011;30152;52.066;5.358;2023-07-13T08:03:36;29.40;;;11.32;;
44446;SDS011;30152;52.066;5.358;2023-07-13T08:06:02;27.77;;;11.18;;
44446;SDS011;30152;52.066;5.358;2023-07-13T08:08:29;21.55;;;9.93;;
44446;SDS011;30152;52.066;5.358;2023-07-13T08:10:55;19.15;;;7.95;;
44446;SDS011;30152;52.066;5.358;2023-07-13T08:13:20;18.23;;;9.25;;
44446;SDS011;30152;52.066;5.358;2023-07-13T08:15:46;21.95;;;8.68;;
44446;SDS011;30152;52.066;5.358;2023-07-13T08:18:12;23.50;;;7.90;;
44446;SDS011;30152;52.066;5.358;2023-07-13T08:20:38;16.88;;;7.15;;
44446;SDS011;30152;52.066;5.358;2023-07-13T08:23:04;15.13;;;7.13;;
44446;SDS011;30152;52.066;5.358;2023-07-13T08:25:30;17.45;;;7.35;;
44446;SDS011;30152;52.066;5.358;2023-07-13T08:27:56;17.23;;;6.55;;
44446;SDS011;30152;52.066;5.358;2023-07-13T08:30:21;13.75;;;5.40;;
44446;SDS011;30152;52.066;5.358;2023-07-13T08:32:48;15.65;;;5.22;;
44446;SDS011;30152;52.066;5.358;2023-07-13T08:35:14;15.10;;;3.80;;
44446;SDS011;30152;52.066;5.358;2023-07-13T08:37:40;11.88;;;3.97;;
44446;SDS011;30152;52.066;5.358;2023-07-13T08:40:08;9.30;;;3.00;;
44446;SDS011;30152;52.066;5.358;2023-07-13T08:42:50;9.50;;;2.90;;
44446;SDS011;30152;52.066;5.358;2023-07-13T08:47:53;11.55;;;3.05;;
44446;SDS011;30152;52.066;5.358;2023-07-13T08:50:24;13.15;;;3.42;;
44446;SDS011;30152;52.066;5.358;2023-07-13T08:52:55;10.23;;;2.93;;
44446;SDS011;30152;52.066;5.358;2023-07-13T08:55:27;10.10;;;4.32;;
44446;SDS011;30152;52.066;5.358;2023-07-13T08:57:59;7.75;;;2.92;;
44446;SDS011;30152;52.066;5.358;2023-07-13T09:00:39;13.38;;;4.60;;
44446;SDS011;30152;52.066;5.358;2023-07-13T09:03:22;8.73;;;3.03;;
44446;SDS011;30152;52.066;5.358;2023-07-13T09:05:51;9.55;;;3.47;;
44446;SDS011;30152;52.066;5.358;2023-07-13T09:11:45;10.10;;;3.40;;
44446;SDS011;30152;52.066;5.358;2023-07-13T09:14:54;8.18;;;2.85;;
44446;SDS011;30152;52.066;5.358;2023-07-13T09:17:15;9.38;;;2.65;;
44446;SDS011;30152;52.066;5.358;2023-07-13T09:19:59;8.20;;;2.67;;
44446;SDS011;30152;52.066;5.358;2023-07-13T09:22:42;11.57;;;2.72;;
44446;SDS011;30152;52.066;5.358;2023-07-13T09:28:00;9.90;;;3.55;;
44446;SDS011;30152;52.066;5.358;2023-07-13T09:35:56;8.48;;;2.50;;
44446;SDS011;30152;52.066;5.358;2023-07-13T09:38:24;8.00;;;2.13;;
44446;SDS011;30152;52.066;5.358;2023-07-13T09:41:02;10.32;;;2.72;;
44446;SDS011;30152;52.066;5.358;2023-07-13T09:43:36;8.88;;;2.30;;
44446;SDS011;30152;52.066;5.358;2023-07-13T09:46:02;7.40;;;2.47;;
44446;SDS011;30152;52.066;5.358;2023-07-13T09:48:35;6.78;;;1.65;;
44446;SDS011;30152;52.066;5.358;2023-07-13T09:51:14;9.93;;;2.20;;
44446;SDS011;30152;52.066;5.358;2023-07-13T09:53:40;8.82;;;2.30;;
44446;SDS011;30152;52.066;5.358;2023-07-13T09:56:19;9.60;;;3.00;;
44446;SDS011;30152;52.066;5.358;2023-07-13T09:58:49;6.45;;;2.70;;
44446;SDS011;30152;52.066;5.358;2023-07-13T10:01:15;8.43;;;2.92;;
44446;SDS011;30152;52.066;5.358;2023-07-13T10:03:51;6.95;;;2.75;;
44446;SDS011;30152;52.066;5.358;2023-07-13T10:06:19;9.07;;;2.65;;
44446;SDS011;30152;52.066;5.358;2023-07-13T10:08:51;9.93;;;2.75;;
44446;SDS011;30152;52.066;5.358;2023-07-13T10:11:19;7.65;;;2.33;;
44446;SDS011;30152;52.066;5.358;2023-07-13T10:13:52;8.63;;;2.83;;
44446;SDS011;30152;52.066;5.358;2023-07-13T10:16:21;7.20;;;2.23;;
44446;SDS011;30152;52.066;5.358;2023-07-13T10:19:21;10.82;;;2.75;;
44446;SDS011;30152;52.066;5.358;2023-07-13T10:24:25;7.50;;;2.67;;
44446;SDS011;30152;52.066;5.358;2023-07-13T10:26:57;8.65;;;2.47;;
44446;SDS011;30152;52.066;5.358;2023-07-13T10:29:53;9.95;;;2.78;;
44446;SDS011;30152;52.066;5.358;2023-07-13T10:32:26;8.48;;;2.97;;
44446;SDS011;30152;52.066;5.358;2023-07-13T10:34:51;10.73;;;2.85;;
44446;SDS011;30152;52.066;5.358;2023-07-13T10:37:24;6.25;;;2.33;;
44446;SDS011;30152;52.066;5.358;2023-07-13T10:39:54;6.40;;;1.80;;
44446;SDS011;30152;52.066;5.358;2023-07-13T10:42:29;5.15;;;1.90;;
44446;SDS011;30152;52.066;5.358;2023-07-13T10:45:02;5.05;;;2.05;;
44446;SDS011;30152;52.066;5.358;2023-07-13T10:47:39;5.53;;;1.45;;
44446;SDS011;30152;52.066;5.358;2023-07-13T10:50:05;5.72;;;1.60;;
44446;SDS011;30152;52.066;5.358;2023-07-13T10:52:51;5.65;;;1.88;;
44446;SDS011;30152;52.066;5.358;2023-07-13T10:58:34;6.47;;;1.60;;
44446;SDS011;30152;52.066;5.358;2023-07-13T11:01:08;5.72;;;1.52;;
44446;SDS011;30152;52.066;5.358;2023-07-13T11:06:12;5.90;;;1.75;;
44446;SDS011;30152;52.066;5.358;2023-07-13T11:18:44;6.00;;;1.90;;
44446;SDS011;30152;52.066;5.358;2023-07-13T11:21:15;7.20;;;1.70;;
44446;SDS011;30152;52.066;5.358;2023-07-13T11:23:45;7.15;;;2.25;;
44446;SDS011;30152;52.066;5.358;2023-07-13T11:31:57;6.57;;;1.55;;
44446;SDS011;30152;52.066;5.358;2023-07-13T11:34:29;8.15;;;1.60;;
44446;SDS011;30152;52.066;5.358;2023-07-13T11:37:01;4.63;;;1.55;;
44446;SDS011;30152;52.066;5.358;2023-07-13T11:39:36;5.05;;;1.38;;
44446;SDS011;30152;52.066;5.358;2023-07-13T11:42:07;9.60;;;2.13;;
44446;SDS011;30152;52.066;5.358;2023-07-13T11:44:41;6.40;;;1.95;;
44446;SDS011;30152;52.066;5.358;2023-07-13T11:47:09;8.43;;;2.90;;
44446;SDS011;30152;52.066;5.358;2023-07-13T11:49:41;6.65;;;1.77;;
44446;SDS011;30152;52.066;5.358;2023-07-13T11:52:21;9.27;;;2.40;;
44446;SDS011;30152;52.066;5.358;2023-07-13T11:54:56;6.95;;;2.88;;
44446;SDS011;30152;52.066;5.358;2023-07-13T11:57:32;7.70;;;2.25;;
44446;SDS011;30152;52.066;5.358;2023-07-13T12:00:01;6.05;;;2.22;;
44446;SDS011;30152;52.066;5.358;2023-07-13T12:02:52;6.95;;;2.50;;
44446;SDS011;30152;52.066;5.358;2023-07-13T12:05:20;8.30;;;2.42;;
44446;SDS011;30152;52.066;5.358;2023-07-13T12:07:46;9.73;;;2.85;;
44446;SDS011;30152;52.066;5.358;2023-07-13T12:12:51;14.23;;;3.15;;
44446;SDS011;30152;52.066;5.358;2023-07-13T12:15:18;8.18;;;2.25;;
44446;SDS011;30152;52.066;5.358;2023-07-13T12:17:46;11.88;;;2.42;;
44446;SDS011;30152;52.066;5.358;2023-07-13T12:20:18;6.53;;;2.13;;
44446;SDS011;30152;52.066;5.358;2023-07-13T12:22:45;8.27;;;2.70;;
44446;SDS011;30152;52.066;5.358;2023-07-13T12:25:12;16.35;;;4.82;;
44446;SDS011;30152;52.066;5.358;2023-07-13T12:27:39;9.20;;;2.25;;
44446;SDS011;30152;52.066;5.358;2023-07-13T12:30:23;5.70;;;2.00;;
44446;SDS011;30152;52.066;5.358;2023-07-13T12:33:06;8.50;;;1.67;;
44446;SDS011;30152;52.066;5.358;2023-07-13T12:35:38;7.88;;;2.38;;
44446;SDS011;30152;52.066;5.358;2023-07-13T12:38:10;5.20;;;1.80;;
44446;SDS011;30152;52.066;5.358;2023-07-13T12:40:36;10.00;;;2.20;;
44446;SDS011;30152;52.066;5.358;2023-07-13T12:43:03;7.50;;;1.88;;
44446;SDS011;30152;52.066;5.358;2023-07-13T12:45:31;6.80;;;1.85;;
44446;SDS011;30152;52.066;5.358;2023-07-13T12:47:59;5.28;;;1.80;;
44446;SDS011;30152;52.066;5.358;2023-07-13T12:50:41;5.22;;;1.80;;
44446;SDS011;30152;52.066;5.358;2023-07-13T12:53:13;9.52;;;2.35;;
44446;SDS011;30152;52.066;5.358;2023-07-13T12:55:40;3.88;;;1.60;;
44446;SDS011;30152;52.066;5.358;2023-07-13T12:58:15;5.72;;;1.60;;
44446;SDS011;30152;52.066;5.358;2023-07-13T13:00:51;6.45;;;1.90;;
44446;SDS011;30152;52.066;5.358;2023-07-13T13:03:24;8.35;;;1.73;;
44446;SDS011;30152;52.066;5.358;2023-07-13T13:06:24;5.18;;;1.90;;
44446;SDS011;30152;52.066;5.358;2023-07-13T13:08:53;6.55;;;2.10;;
44446;SDS011;30152;52.066;5.358;2023-07-13T13:11:21;6.53;;;1.63;;
44446;SDS011;30152;52.066;5.358;2023-07-13T13:13:48;6.15;;;1.67;;
44446;SDS011;30152;52.066;5.358;2023-07-13T13:16:23;5.68;;;2.17;;
44446;SDS011;30152;52.066;5.358;2023-07-13T13:18:50;6.95;;;1.98;;
44446;SDS011;30152;52.066;5.358;2023-07-13T13:21:16;6.05;;;1.90;;
44446;SDS011;30152;52.066;5.358;2023-07-13T13:23:43;6.45;;;1.73;;
44446;SDS011;30152;52.066;5.358;2023-07-13T13:26:15;5.63;;;2.10;;
44446;SDS011;30152;52.066;5.358;2023-07-13T13:28:41;5.80;;;1.77;;
44446;SDS011;30152;52.066;5.358;2023-07-13T13:31:09;6.32;;;1.77;;
44446;SDS011;30152;52.066;5.358;2023-07-13T13:33:37;5.80;;;1.65;;
44446;SDS011;30152;52.066;5.358;2023-07-13T13:36:12;6.25;;;1.77;;
44446;SDS011;30152;52.066;5.358;2023-07-13T13:38:40;4.90;;;1.98;;
44446;SDS011;30152;52.066;5.358;2023-07-13T13:41:07;11.07;;;2.25;;
44446;SDS011;30152;52.066;5.358;2023-07-13T13:43:38;6.82;;;1.65;;
44446;SDS011;30152;52.066;5.358;2023-07-13T13:46:11;5.50;;;1.70;;
44446;SDS011;30152;52.066;5.358;2023-07-13T13:48:43;6.72;;;1.73;;
44446;SDS011;30152;52.066;5.358;2023-07-13T13:51:14;6.10;;;1.90;;
44446;SDS011;30152;52.066;5.358;2023-07-13T13:53:42;5.07;;;1.80;;
44446;SDS011;30152;52.066;5.358;2023-07-13T13:56:08;6.60;;;2.00;;
44446;SDS011;30152;52.066;5.358;2023-07-13T13:58:34;6.72;;;1.90;;
44446;SDS011;30152;52.066;5.358;2023-07-13T14:01:00;9.00;;;2.25;;
44446;SDS011;30152;52.066;5.358;2023-07-13T14:03:26;6.57;;;1.85;;
44446;SDS011;30152;52.066;5.358;2023-07-13T14:05:53;8.93;;;2.05;;
44446;SDS011;30152;52.066;5.358;2023-07-13T14:08:19;6.13;;;2.13;;
44446;SDS011;30152;52.066;5.358;2023-07-13T14:10:46;6.40;;;1.90;;
44446;SDS011;30152;52.066;5.358;2023-07-13T14:13:36;6.00;;;2.05;;
44446;SDS011;30152;52.066;5.358;2023-07-13T14:16:09;5.80;;;1.70;;
44446;SDS011;30152;52.066;5.358;2023-07-13T14:18:39;5.10;;;1.67;;
44446;SDS011;30152;52.066;5.358;2023-07-13T14:21:11;6.32;;;1.80;;
44446;SDS011;30152;52.066;5.358;2023-07-13T14:23:44;5.63;;;1.92;;
44446;SDS011;30152;52.066;5.358;2023-07-13T14:26:11;7.40;;;1.98;;
44446;SDS011;30152;52.066;5.358;2023-07-13T14:28:44;4.75;;;1.60;;
44446;SDS011;30152;52.066;5.358;2023-07-13T14:31:12;5.65;;;1.45;;
44446;SDS011;30152;52.066;5.358;2023-07-13T14:33:40;6.00;;;1.60;;
44446;SDS011;30152;52.066;5.358;2023-07-13T14:38:50;5.03;;;1.40;;
44446;SDS011;30152;52.066;5.358;2023-07-13T14:41:16;5.13;;;1.70;;
44446;SDS011;30152;52.066;5.358;2023-07-13T14:43:42;5.75;;;2.00;;
44446;SDS011;30152;52.066;5.358;2023-07-13T14:46:11;4.82;;;1.95;;
44446;SDS011;30152;52.066;5.358;2023-07-13T14:48:49;7.18;;;1.83;;
44446;SDS011;30152;52.066;5.358;2023-07-13T14:51:15;6.63;;;1.92;;
44446;SDS011;30152;52.066;5.358;2023-07-13T14:53:41;5.85;;;1.90;;
44446;SDS011;30152;52.066;5.358;2023-07-13T14:56:10;5.50;;;1.80;;
44446;SDS011;30152;52.066;5.358;2023-07-13T14:58:36;9.32;;;2.28;;
44446;SDS011;30152;52.066;5.358;2023-07-13T15:01:07;7.25;;;2.10;;
44446;SDS011;30152;52.066;5.358;2023-07-13T15:03:37;7.40;;;2.13;;
44446;SDS011;30152;52.066;5.358;2023-07-13T15:06:11;8.55;;;2.20;;
44446;SDS011;30152;52.066;5.358;2023-07-13T15:08:38;5.28;;;1.50;;
44446;SDS011;30152;52.066;5.358;2023-07-13T15:11:05;7.43;;;1.95;;
44446;SDS011;30152;52.066;5.358;2023-07-13T15:13:37;5.53;;;1.92;;
44446;SDS011;30152;52.066;5.358;2023-07-13T15:16:04;5.43;;;1.80;;
44446;SDS011;30152;52.066;5.358;2023-07-13T15:18:38;4.32;;;1.45;;
44446;SDS011;30152;52.066;5.358;2023-07-13T15:21:08;5.00;;;1.10;;
44446;SDS011;30152;52.066;5.358;2023-07-13T15:23:35;3.40;;;1.00;;
44446;SDS011;30152;52.066;5.358;2023-07-13T15:26:01;3.92;;;1.38;;
44446;SDS011;30152;52.066;5.358;2023-07-13T15:28:28;5.15;;;1.30;;
44446;SDS011;30152;52.066;5.358;2023-07-13T15:30:54;4.22;;;1.00;;
44446;SDS011;30152;52.066;5.358;2023-07-13T15:35:50;5.75;;;1.30;;
44446;SDS011;30152;52.066;5.358;2023-07-13T15:38:20;4.45;;;1.10;;
44446;SDS011;30152;52.066;5.358;2023-07-13T15:40:48;7.63;;;1.52;;
44446;SDS011;30152;52.066;5.358;2023-07-13T15:43:15;8.52;;;1.75;;
44446;SDS011;30152;52.066;5.358;2023-07-13T15:45:42;4.50;;;1.02;;
44446;SDS011;30152;52.066;5.358;2023-07-13T15:50:42;6.95;;;1.80;;
44446;SDS011;30152;52.066;5.358;2023-07-13T15:53:19;3.25;;;1.10;;
44446;SDS011;30152;52.066;5.358;2023-07-13T15:55:50;4.50;;;1.35;;
44446;SDS011;30152;52.066;5.358;2023-07-13T15:58:17;5.22;;;1.15;;
44446;SDS011;30152;52.066;5.358;2023-07-13T16:00:43;5.15;;;1.17;;
44446;SDS011;30152;52.066;5.358;2023-07-13T16:03:10;3.22;;;0.90;;
44446;SDS011;30152;52.066;5.358;2023-07-13T16:05:36;6.55;;;1.67;;
44446;SDS011;30152;52.066;5.358;2023-07-13T16:08:02;4.18;;;1.20;;
44446;SDS011;30152;52.066;5.358;2023-07-13T16:10:33;5.78;;;1.30;;
44446;SDS011;30152;52.066;5.358;2023-07-13T16:13:08;4.35;;;1.05;;
44446;SDS011;30152;52.066;5.358;2023-07-13T16:15:39;5.70;;;1.33;;
44446;SDS011;30152;52.066;5.358;2023-07-13T16:18:09;5.53;;;1.48;;
44446;SDS011;30152;52.066;5.358;2023-07-13T16:20:36;5.85;;;1.30;;
44446;SDS011;30152;52.066;5.358;2023-07-13T16:23:03;6.22;;;1.20;;
44446;SDS011;30152;52.066;5.358;2023-07-13T16:25:29;7.57;;;1.30;;
44446;SDS011;30152;52.066;5.358;2023-07-13T16:27:55;6.47;;;1.48;;
44446;SDS011;30152;52.066;5.358;2023-07-13T16:30:27;7.70;;;1.20;;
44446;SDS011;30152;52.066;5.358;2023-07-13T16:32:59;7.57;;;1.40;;
44446;SDS011;30152;52.066;5.358;2023-07-13T16:35:31;4.22;;;1.10;;
44446;SDS011;30152;52.066;5.358;2023-07-13T16:38:04;7.75;;;1.33;;
44446;SDS011;30152;52.066;5.358;2023-07-13T16:43:13;7.40;;;1.58;;
44446;SDS011;30152;52.066;5.358;2023-07-13T16:45:42;2.70;;;0.98;;
44446;SDS011;30152;52.066;5.358;2023-07-13T16:48:12;6.80;;;1.10;;
44446;SDS011;30152;52.066;5.358;2023-07-13T16:50:44;6.05;;;1.40;;
44446;SDS011;30152;52.066;5.358;2023-07-13T16:53:15;5.60;;;1.33;;
44446;SDS011;30152;52.066;5.358;2023-07-13T16:55:44;3.55;;;1.10;;
44446;SDS011;30152;52.066;5.358;2023-07-13T16:58:10;3.55;;;0.98;;
44446;SDS011;30152;52.066;5.358;2023-07-13T17:00:37;3.65;;;1.05;;
44446;SDS011;30152;52.066;5.358;2023-07-13T17:03:03;7.50;;;1.20;;
44446;SDS011;30152;52.066;5.358;2023-07-13T17:05:32;4.18;;;0.95;;
44446;SDS011;30152;52.066;5.358;2023-07-13T17:08:09;4.00;;;1.38;;
44446;SDS011;30152;52.066;5.358;2023-07-13T17:10:39;3.67;;;1.52;;
44446;SDS011;30152;52.066;5.358;2023-07-13T17:13:09;4.63;;;1.08;;
44446;SDS011;30152;52.066;5.358;2023-07-13T17:15:36;4.85;;;1.15;;
44446;SDS011;30152;52.066;5.358;2023-07-13T17:18:02;6.50;;;1.25;;
44446;SDS011;30152;52.066;5.358;2023-07-13T17:20:31;6.05;;;1.10;;
44446;SDS011;30152;52.066;5.358;2023-07-13T17:23:02;3.92;;;1.20;;
44446;SDS011;30152;52.066;5.358;2023-07-13T17:25:34;4.82;;;1.30;;
44446;SDS011;30152;52.066;5.358;2023-07-13T17:28:00;4.28;;;1.50;;
44446;SDS011;30152;52.066;5.358;2023-07-13T17:30:26;7.05;;;1.60;;
44446;SDS011;30152;52.066;5.358;2023-07-13T17:32:54;4.47;;;1.20;;
44446;SDS011;30152;52.066;5.358;2023-07-13T17:35:22;4.28;;;1.10;;
44446;SDS011;30152;52.066;5.358;2023-07-13T17:37:54;4.47;;;1.25;;
44446;SDS011;30152;52.066;5.358;2023-07-13T17:40:21;3.40;;;0.75;;
44446;SDS011;30152;52.066;5.358;2023-07-13T17:42:49;4.60;;;1.08;;
44446;SDS011;30152;52.066;5.358;2023-07-13T17:45:19;6.93;;;1.20;;
44446;SDS011;30152;52.066;5.358;2023-07-13T17:47:46;3.75;;;1.45;;
44446;SDS011;30152;52.066;5.358;2023-07-13T17:50:14;4.63;;;1.40;;
44446;SDS011;30152;52.066;5.358;2023-07-13T17:52:42;4.60;;;1.60;;
44446;SDS011;30152;52.066;5.358;2023-07-13T17:55:15;5.70;;;1.60;;
44446;SDS011;30152;52.066;5.358;2023-07-13T17:57:43;4.72;;;1.63;;
44446;SDS011;30152;52.066;5.358;2023-07-13T18:00:12;5.47;;;1.83;;
44446;SDS011;30152;52.066;5.358;2023-07-13T18:03:03;5.05;;;1.50;;
44446;SDS011;30152;52.066;5.358;2023-07-13T18:05:35;4.60;;;1.55;;
44446;SDS011;30152;52.066;5.358;2023-07-13T18:08:02;5.65;;;1.60;;
44446;SDS011;30152;52.066;5.358;2023-07-13T18:10:29;6.40;;;1.60;;
44446;SDS011;30152;52.066;5.358;2023-07-13T18:12:57;6.90;;;1.88;;
44446;SDS011;30152;52.066;5.358;2023-07-13T18:15:23;4.93;;;1.33;;
44446;SDS011;30152;52.066;5.358;2023-07-13T18:17:51;7.95;;;1.60;;
44446;SDS011;30152;52.066;5.358;2023-07-13T18:20:18;6.78;;;1.70;;
44446;SDS011;30152;52.066;5.358;2023-07-13T18:22:47;8.70;;;1.77;;
44446;SDS011;30152;52.066;5.358;2023-07-13T18:25:17;4.55;;;1.50;;
44446;SDS011;30152;52.066;5.358;2023-07-13T18:27:45;7.95;;;1.48;;
44446;SDS011;30152;52.066;5.358;2023-07-13T18:30:12;8.07;;;2.03;;
44446;SDS011;30152;52.066;5.358;2023-07-13T18:32:43;5.45;;;1.35;;
44446;SDS011;30152;52.066;5.358;2023-07-13T18:35:17;5.22;;;1.63;;
44446;SDS011;30152;52.066;5.358;2023-07-13T18:37:50;4.22;;;1.30;;
44446;SDS011;30152;52.066;5.358;2023-07-13T18:40:17;7.03;;;1.38;;
44446;SDS011;30152;52.066;5.358;2023-07-13T18:42:44;8.15;;;1.40;;
44446;SDS011;30152;52.066;5.358;2023-07-13T18:45:11;5.20;;;1.55;;
44446;SDS011;30152;52.066;5.358;2023-07-13T18:47:41;6.95;;;1.48;;
44446;SDS011;30152;52.066;5.358;2023-07-13T18:50:15;5.65;;;1.67;;
44446;SDS011;30152;52.066;5.358;2023-07-13T18:52:43;6.00;;;1.50;;
44446;SDS011;30152;52.066;5.358;2023-07-13T18:55:13;7.55;;;2.05;;
44446;SDS011;30152;52.066;5.358;2023-07-13T18:57:40;4.50;;;1.55;;
44446;SDS011;30152;52.066;5.358;2023-07-13T19:00:06;4.82;;;1.17;;
44446;SDS011;30152;52.066;5.358;2023-07-13T19:02:32;8.13;;;1.52;;
44446;SDS011;30152;52.066;5.358;2023-07-13T19:04:58;6.90;;;1.48;;
44446;SDS011;30152;52.066;5.358;2023-07-13T19:07:24;5.53;;;1.60;;
44446;SDS011;30152;52.066;5.358;2023-07-13T19:09:53;5.40;;;1.50;;
44446;SDS011;30152;52.066;5.358;2023-07-13T19:12:20;4.60;;;1.50;;
44446;SDS011;30152;52.066;5.358;2023-07-13T19:14:48;7.78;;;1.52;;
44446;SDS011;30152;52.066;5.358;2023-07-13T19:17:15;5.63;;;1.27;;
44446;SDS011;30152;52.066;5.358;2023-07-13T19:19:40;4.78;;;1.42;;
44446;SDS011;30152;52.066;5.358;2023-07-13T19:22:07;7.10;;;1.52;;
44446;SDS011;30152;52.066;5.358;2023-07-13T19:24:37;4.93;;;1.58;;
44446;SDS011;30152;52.066;5.358;2023-07-13T19:27:03;5.05;;;1.42;;
44446;SDS011;30152;52.066;5.358;2023-07-13T19:29:29;7.00;;;1.30;;
44446;SDS011;30152;52.066;5.358;2023-07-13T19:31:55;4.43;;;1.40;;
44446;SDS011;30152;52.066;5.358;2023-07-13T19:34:22;4.13;;;1.15;;
44446;SDS011;30152;52.066;5.358;2023-07-13T19:36:57;4.28;;;1.30;;
44446;SDS011;30152;52.066;5.358;2023-07-13T19:39:29;6.32;;;1.80;;
44446;SDS011;30152;52.066;5.358;2023-07-13T19:42:02;3.92;;;1.40;;
44446;SDS011;30152;52.066;5.358;2023-07-13T19:44:29;5.13;;;1.48;;
44446;SDS011;30152;52.066;5.358;2023-07-13T19:46:55;5.65;;;1.60;;
44446;SDS011;30152;52.066;5.358;2023-07-13T19:49:24;5.13;;;1.65;;
44446;SDS011;30152;52.066;5.358;2023-07-13T19:51:50;7.05;;;1.58;;
44446;SDS011;30152;52.066;5.358;2023-07-13T19:54:16;6.45;;;1.50;;
44446;SDS011;30152;52.066;5.358;2023-07-13T19:56:42;6.40;;;1.50;;
44446;SDS011;30152;52.066;5.358;2023-07-13T20:01:45;4.47;;;1.45;;
44446;SDS011;30152;52.066;5.358;2023-07-13T20:04:11;6.35;;;1.42;;
44446;SDS011;30152;52.066;5.358;2023-07-13T20:06:37;5.25;;;2.03;;
44446;SDS011;30152;52.066;5.358;2023-07-13T20:09:05;6.13;;;1.90;;
44446;SDS011;30152;52.066;5.358;2023-07-13T20:11:42;7.82;;;1.90;;
44446;SDS011;30152;52.066;5.358;2023-07-13T20:14:26;4.55;;;1.48;;
44446;SDS011;30152;52.066;5.358;2023-07-13T20:17:00;6.60;;;2.13;;
44446;SDS011;30152;52.066;5.358;2023-07-13T20:19:32;6.00;;;1.90;;
44446;SDS011;30152;52.066;5.358;2023-07-13T20:21:59;6.18;;;1.75;;
44446;SDS011;30152;52.066;5.358;2023-07-13T20:24:26;7.53;;;1.98;;
44446;SDS011;30152;52.066;5.358;2023-07-13T20:26:51;7.95;;;1.73;;
44446;SDS011;30152;52.066;5.358;2023-07-13T20:29:17;6.30;;;1.63;;
44446;SDS011;30152;52.066;5.358;2023-07-13T20:31:43;6.70;;;1.70;;
44446;SDS011;30152;52.066;5.358;2023-07-13T20:34:22;4.47;;;1.58;;
44446;SDS011;30152;52.066;5.358;2023-07-13T20:36:50;6.72;;;1.90;;
44446;SDS011;30152;52.066;5.358;2023-07-13T20:39:18;5.47;;;1.90;;
44446;SDS011;30152;52.066;5.358;2023-07-13T20:41:45;10.60;;;2.47;;
44446;SDS011;30152;52.066;5.358;2023-07-13T20:44:11;5.82;;;1.70;;
44446;SDS011;30152;52.066;5.358;2023-07-13T20:46:36;7.57;;;2.63;;
44446;SDS011;30152;52.066;5.358;2023-07-13T20:49:03;5.25;;;1.85;;
44446;SDS011;30152;52.066;5.358;2023-07-13T20:51:30;6.07;;;2.00;;
44446;SDS011;30152;52.066;5.358;2023-07-13T20:53:56;8.75;;;2.17;;
44446;SDS011;30152;52.066;5.358;2023-07-13T20:56:23;5.55;;;1.63;;
44446;SDS011;30152;52.066;5.358;2023-07-13T20:58:51;7.70;;;1.75;;
44446;SDS011;30152;52.066;5.358;2023-07-13T21:03:55;7.53;;;2.10;;
44446;SDS011;30152;52.066;5.358;2023-07-13T21:06:24;5.35;;;2.00;;
44446;SDS011;30152;52.066;5.358;2023-07-13T21:08:53;8.05;;;2.47;;
44446;SDS011;30152;52.066;5.358;2023-07-13T21:11:19;11.55;;;2.70;;
44446;SDS011;30152;52.066;5.358;2023-07-13T21:13:45;5.97;;;2.03;;
44446;SDS011;30152;52.066;5.358;2023-07-13T21:16:21;9.73;;;2.63;;
44446;SDS011;30152;52.066;5.358;2023-07-13T21:18:49;10.85;;;2.70;;
44446;SDS011;30152;52.066;5.358;2023-07-13T21:21:17;7.43;;;3.10;;
44446;SDS011;30152;52.066;5.358;2023-07-13T21:23:44;7.18;;;2.20;;
44446;SDS011;30152;52.066;5.358;2023-07-13T21:26:11;8.50;;;2.35;;
44446;SDS011;30152;52.066;5.358;2023-07-13T21:28:40;7.03;;;2.38;;
44446;SDS011;30152;52.066;5.358;2023-07-13T21:31:14;7.03;;;1.88;;
44446;SDS011;30152;52.066;5.358;2023-07-13T21:33:51;9.77;;;2.63;;
44446;SDS011;30152;52.066;5.358;2023-07-13T21:36:19;5.32;;;2.20;;
44446;SDS011;30152;52.066;5.358;2023-07-13T21:38:45;6.32;;;2.53;;
44446;SDS011;30152;52.066;5.358;2023-07-13T21:43:50;9.13;;;2.55;;
44446;SDS011;30152;52.066;5.358;2023-07-13T21:46:16;10.70;;;2.38;;
44446;SDS011;30152;52.066;5.358;2023-07-13T21:48:42;6.75;;;2.75;;
44446;SDS011;30152;52.066;5.358;2023-07-13T21:51:14;7.57;;;2.88;;
44446;SDS011;30152;52.066;5.358;2023-07-13T21:53:43;7.05;;;2.33;;
44446;SDS011;30152;52.066;5.358;2023-07-13T21:56:10;9.77;;;2.83;;
44446;SDS011;30152;52.066;5.358;2023-07-13T21:58:37;6.90;;;2.65;;
44446;SDS011;30152;52.066;5.358;2023-07-13T22:01:03;7.18;;;2.80;;
44446;SDS011;30152;52.066;5.358;2023-07-13T22:03:36;9.17;;;3.13;;
44446;SDS011;30152;52.066;5.358;2023-07-13T22:06:03;7.90;;;2.80;;
